createdAt,value
2022-08-12T00:02:02.928Z,15.73
2022-08-12T00:07:26.369Z,15.60
2022-08-12T00:12:46.322Z,15.45
2022-08-12T00:18:07.428Z,15.36
2022-08-12T00:23:28.019Z,15.30
2022-08-12T00:28:48.760Z,15.28
2022-08-12T00:34:08.901Z,15.27
2022-08-12T00:39:31.892Z,15.22
2022-08-12T00:44:33.513Z,15.20
2022-08-12T00:49:37.074Z,15.16
2022-08-12T00:54:40.658Z,15.15
2022-08-12T00:59:45.084Z,15.10
2022-08-12T01:05:07.431Z,14.96
2022-08-12T01:10:32.675Z,14.94
2022-08-12T01:15:35.219Z,14.94
2022-08-12T01:20:47.996Z,14.88
2022-08-12T01:25:55.794Z,14.74
2022-08-12T01:31:04.425Z,14.69
2022-08-12T01:36:09.946Z,14.67
2022-08-12T01:41:13.858Z,14.59
2022-08-12T01:46:29.536Z,14.57
2022-08-12T01:52:15.537Z,14.49
2022-08-12T01:57:16.761Z,14.46
2022-08-12T02:03:08.728Z,14.43
2022-08-12T02:09:00.420Z,14.51
2022-08-12T02:14:24.405Z,14.48
2022-08-12T02:19:46.362Z,14.42
2022-08-12T02:24:50.937Z,14.34
2022-08-12T02:29:52.459Z,14.24
2022-08-12T02:34:56.531Z,14.17
2022-08-12T02:40:03.573Z,14.10
2022-08-12T02:45:09.096Z,14.04
2022-08-12T02:50:11.207Z,14.14
2022-08-12T02:55:34.238Z,14.20
2022-08-12T03:00:37.909Z,14.19
2022-08-12T03:05:59.381Z,14.17
2022-08-12T03:11:14.640Z,14.19
2022-08-12T03:16:18.935Z,14.22
2022-08-12T03:21:57.997Z,14.24
2022-08-12T03:26:45.300Z,14.19
2022-08-12T03:31:48.344Z,14.18
2022-08-12T03:36:50.432Z,14.14
2022-08-12T03:42:01.788Z,14.07
2022-08-12T03:47:39.674Z,14.06
2022-08-12T03:52:59.930Z,14.04
2022-08-12T03:58:20.963Z,14.02
2022-08-12T04:03:41.521Z,14.10
2022-08-12T04:08:44.237Z,14.16
2022-08-12T04:13:48.782Z,14.21
2022-08-12T04:18:50.505Z,14.25
2022-08-12T04:23:54.097Z,14.31
2022-08-12T04:28:57.011Z,14.33
2022-08-12T04:34:00.184Z,14.41
2022-08-12T04:39:04.459Z,14.56
2022-08-12T04:44:06.087Z,14.63
2022-08-12T04:49:08.396Z,14.73
2022-08-12T04:54:10.016Z,14.75
2022-08-12T04:59:15.614Z,14.91
2022-08-12T05:04:19.700Z,14.97
2022-08-12T05:09:21.264Z,15.14
2022-08-12T05:14:23.958Z,15.24
2022-08-12T05:19:26.694Z,15.39
2022-08-12T05:24:28.368Z,15.72
2022-08-12T05:30:07.935Z,16.17
2022-08-12T05:34:53.600Z,17.09
2022-08-12T05:39:55.337Z,20.23
2022-08-12T05:44:57.068Z,21.18
2022-08-12T05:49:59.522Z,20.30
2022-08-12T05:55:01.084Z,18.91
2022-08-12T06:00:06.606Z,18.29
2022-08-12T06:05:10.538Z,17.93
2022-08-12T06:10:12.453Z,17.76
2022-08-12T06:15:14.023Z,17.86
2022-08-12T06:20:29.643Z,18.15
2022-08-12T06:25:34.433Z,18.24
2022-08-12T06:30:39.159Z,18.41
2022-08-12T06:35:47.760Z,18.45
2022-08-12T06:41:14.638Z,18.52
2022-08-12T06:46:16.166Z,18.54
2022-08-12T06:51:19.829Z,18.72
2022-08-12T06:56:34.733Z,18.85
2022-08-12T07:01:50.692Z,19.58
2022-08-12T07:06:55.747Z,20.54
2022-08-12T07:11:57.275Z,20.07
2022-08-12T07:17:02.280Z,20.06
2022-08-12T07:22:06.365Z,20.00
2022-08-12T07:27:07.966Z,20.09
2022-08-12T07:32:09.464Z,20.22
2022-08-12T07:37:11.029Z,20.30
2022-08-12T07:42:12.785Z,21.75
2022-08-12T07:47:14.464Z,21.60
2022-08-12T07:52:16.989Z,24.08
2022-08-12T07:57:18.631Z,23.40
2022-08-12T08:02:20.436Z,22.44
2022-08-12T08:07:30.448Z,21.99
2022-08-12T08:12:51.028Z,21.90
2022-08-12T08:17:59.570Z,22.02
2022-08-12T08:23:07.992Z,22.25
2022-08-12T08:28:12.649Z,22.20
2022-08-12T08:33:23.453Z,22.34
2022-08-12T08:38:37.590Z,22.66
2022-08-12T08:43:44.199Z,22.72
2022-08-12T08:48:46.297Z,22.91
2022-08-12T08:53:51.785Z,23.04
2022-08-12T08:58:54.511Z,23.05
2022-08-12T09:05:13.104Z,23.18
2022-08-12T09:09:19.276Z,23.66
2022-08-12T09:19:43.216Z,24.00
2022-08-12T09:24:45.294Z,24.15
2022-08-12T09:30:09.994Z,24.39
2022-08-12T09:35:18.692Z,25.19
2022-08-12T09:40:57.581Z,25.15
2022-08-12T09:46:06.177Z,25.44
2022-08-12T09:51:22.073Z,25.80
2022-08-12T09:56:58.968Z,26.67
2022-08-12T10:02:45.710Z,30.05
2022-08-12T10:07:20.428Z,31.56
2022-08-12T10:13:07.146Z,32.82
2022-08-12T10:18:08.032Z,33.35
2022-08-12T10:23:12.691Z,33.79
2022-08-12T10:28:33.116Z,33.90
2022-08-12T10:33:54.818Z,34.26
2022-08-12T10:38:56.528Z,34.54
2022-08-12T10:43:58.352Z,34.58
2022-08-12T10:49:06.447Z,34.40
2022-08-12T10:54:27.047Z,34.36
2022-08-12T11:00:01.442Z,34.71
2022-08-12T11:04:51.586Z,34.34
2022-08-12T11:10:00.094Z,34.30
2022-08-12T11:15:14.718Z,34.46
2022-08-12T11:20:24.449Z,34.15
2022-08-12T11:25:56.335Z,33.84
2022-08-12T11:30:54.108Z,33.56
2022-08-12T11:36:03.603Z,33.54
2022-08-12T11:41:05.687Z,33.93
2022-08-12T11:46:07.367Z,34.17
2022-08-12T11:51:11.604Z,34.14
2022-08-12T11:56:15.240Z,33.55
2022-08-12T12:02:02.885Z,33.47
2022-08-12T12:06:38.875Z,33.74
2022-08-12T12:11:48.861Z,33.95
2022-08-12T12:16:51.227Z,33.91
2022-08-12T12:21:52.824Z,34.09
2022-08-12T12:27:00.065Z,33.01
2022-08-12T12:32:10.630Z,33.64
2022-08-12T12:37:16.469Z,33.68
2022-08-12T12:42:43.737Z,33.85
2022-08-12T12:47:58.831Z,33.74
2022-08-12T12:53:00.539Z,33.75
2022-08-12T12:58:05.236Z,33.80
2022-08-12T13:03:11.283Z,33.89
2022-08-12T13:08:27.863Z,33.58
2022-08-12T13:14:10.406Z,33.28
2022-08-12T13:18:58.568Z,33.01
2022-08-12T13:24:00.533Z,33.16
2022-08-12T13:29:02.056Z,32.47
2022-08-12T13:34:32.260Z,32.09
2022-08-12T13:39:26.864Z,31.94
2022-08-12T13:44:30.194Z,32.07
2022-08-12T13:49:54.467Z,32.17
2022-08-12T13:54:56.561Z,32.12
2022-08-12T14:00:00.481Z,32.06
2022-08-12T14:05:03.578Z,31.70
2022-08-12T14:10:36.896Z,32.02
2022-08-12T14:15:42.660Z,31.09
2022-08-12T14:20:58.490Z,31.32
2022-08-12T14:26:03.069Z,31.69
2022-08-12T14:31:18.219Z,31.59
2022-08-12T14:36:22.845Z,31.43
2022-08-12T14:41:36.901Z,31.18
2022-08-12T14:46:52.056Z,31.00
2022-08-12T14:52:42.684Z,30.78
2022-08-12T14:57:23.886Z,30.93
2022-08-12T15:02:29.510Z,30.78
2022-08-12T15:07:52.230Z,30.27
2022-08-12T15:12:58.141Z,30.33
2022-08-12T15:18:02.177Z,30.40
2022-08-12T15:23:18.131Z,30.30
2022-08-12T15:28:25.181Z,30.12
2022-08-12T15:33:37.882Z,29.83
2022-08-12T15:38:47.895Z,29.66
2022-08-12T15:44:16.376Z,29.74
2022-08-12T15:49:16.632Z,29.64
2022-08-12T15:54:35.143Z,29.60
2022-08-12T16:00:00.215Z,29.56
2022-08-12T16:04:59.869Z,29.45
2022-08-12T16:10:06.674Z,29.44
2022-08-12T16:15:12.046Z,29.12
2022-08-12T16:20:33.219Z,28.98
2022-08-12T16:26:02.857Z,28.88
2022-08-12T16:31:01.934Z,28.58
2022-08-12T16:36:06.112Z,28.65
2022-08-12T16:41:13.444Z,28.57
2022-08-12T16:46:32.774Z,28.42
2022-08-12T16:51:40.296Z,28.14
2022-08-12T16:56:50.801Z,28.01
2022-08-12T17:01:58.942Z,27.94
2022-08-12T17:07:02.489Z,27.86
2022-08-12T17:12:05.019Z,27.64
2022-08-12T17:17:12.461Z,27.64
2022-08-12T17:22:30.596Z,27.52
2022-08-12T17:27:39.847Z,27.41
2022-08-12T17:32:44.944Z,27.29
2022-08-12T17:38:15.546Z,27.15
2022-08-12T17:43:56.520Z,27.05
2022-08-12T17:48:55.039Z,26.89
2022-08-12T17:54:10.239Z,26.84
2022-08-12T17:59:14.359Z,26.66
2022-08-12T18:04:36.409Z,26.35
2022-08-12T18:09:40.970Z,26.28
2022-08-12T18:14:47.565Z,26.11
2022-08-12T18:20:06.636Z,25.96
2022-08-12T18:26:15.027Z,25.70
2022-08-12T18:31:02.245Z,25.31
2022-08-12T18:36:08.816Z,25.19
2022-08-12T18:41:33.525Z,24.98
2022-08-12T18:46:42.666Z,24.81
2022-08-12T18:51:55.189Z,24.62
2022-08-12T18:57:00.690Z,24.43
2022-08-12T19:02:20.503Z,24.14
2022-08-12T19:07:29.804Z,23.92
2022-08-12T19:13:08.090Z,23.63
2022-08-12T19:18:11.005Z,23.35
2022-08-12T19:23:16.612Z,23.17
2022-08-12T19:28:29.482Z,22.99
2022-08-12T19:33:33.490Z,22.74
2022-08-12T19:38:35.974Z,22.55
2022-08-12T19:43:59.217Z,22.49
2022-08-12T19:49:04.089Z,22.31
2022-08-12T19:54:06.780Z,22.09
2022-08-12T19:59:42.928Z,22.00
2022-08-12T20:06:04.594Z,21.90
2022-08-12T20:10:16.559Z,21.81
2022-08-12T20:15:26.142Z,21.71
2022-08-12T20:20:44.740Z,21.55
2022-08-12T20:25:52.610Z,21.52
2022-08-12T20:31:01.514Z,21.38
2022-08-12T20:36:06.483Z,21.25
2022-08-12T20:41:17.662Z,21.16
2022-08-12T20:46:23.226Z,21.08
2022-08-12T20:51:27.660Z,20.94
2022-08-12T20:56:35.431Z,20.77
2022-08-12T21:01:47.613Z,20.57
2022-08-12T21:07:04.511Z,20.51
2022-08-12T21:12:28.384Z,20.45
2022-08-12T21:18:08.630Z,20.27
2022-08-12T21:22:55.968Z,20.18
2022-08-12T21:28:00.976Z,20.00
2022-08-12T21:33:04.675Z,19.88
2022-08-12T21:38:12.281Z,19.69
2022-08-12T21:43:19.702Z,19.65
2022-08-12T21:48:25.403Z,19.54
2022-08-12T21:53:31.633Z,19.51
2022-08-12T21:58:48.889Z,19.48
2022-08-12T22:04:12.527Z,19.44
2022-08-12T22:09:16.552Z,19.46
2022-08-12T22:14:23.662Z,19.35
2022-08-12T22:19:26.724Z,19.28
2022-08-12T22:24:30.681Z,19.21
2022-08-12T22:29:51.254Z,19.15
2022-08-12T22:35:12.696Z,19.11
2022-08-12T22:40:25.106Z,19.08
2022-08-12T22:45:48.667Z,18.97
2022-08-12T22:50:59.312Z,18.83
2022-08-12T22:56:06.813Z,18.69
2022-08-12T23:01:11.063Z,18.58
2022-08-12T23:06:12.947Z,18.52
2022-08-12T23:11:16.272Z,18.42
2022-08-12T23:16:29.472Z,18.31
2022-08-12T23:22:03.433Z,18.23
2022-08-12T23:27:16.057Z,18.16
2022-08-12T23:32:35.614Z,18.05
2022-08-12T23:37:47.403Z,18.03
2022-08-12T23:42:56.859Z,17.93
2022-08-12T23:48:00.134Z,17.90
2022-08-12T23:53:22.652Z,17.86
2022-08-12T23:58:28.096Z,17.89
